sensor_id;sensor_type;location;lat;lon;timestamp;P1;durP1;ratioP1;P2;durP2;ratioP2
18661;SDS011;61528;49.456;11.098;2023-02-01T00:01:46;6.17;;;4.57;;
18661;SDS011;61528;49.456;11.098;2023-02-01T00:04:12;5.37;;;4.13;;
18661;SDS011;61528;49.456;11.098;2023-02-01T00:06:39;6.87;;;5.20;;
18661;SDS011;61528;49.456;11.098;2023-02-01T00:09:05;7.77;;;4.77;;
18661;SDS011;61528;49.456;11.098;2023-02-01T00:11:31;6.07;;;4.50;;
18661;SDS011;61528;49.456;11.098;2023-02-01T00:13:58;7.33;;;5.40;;
18661;SDS011;61528;49.456;11.098;2023-02-01T00:16:25;6.80;;;5.23;;
18661;SDS011;61528;49.456;11.098;2023-02-01T00:18:55;7.03;;;5.03;;
18661;SDS011;61528;49.456;11.098;2023-02-01T00:21:22;7.27;;;5.40;;
18661;SDS011;61528;49.456;11.098;2023-02-01T00:23:48;6.07;;;5.27;;
18661;SDS011;61528;49.456;11.098;2023-02-01T00:26:36;5.30;;;4.47;;
18661;SDS011;61528;49.456;11.098;2023-02-01T00:29:01;7.17;;;5.43;;
18661;SDS011;61528;49.456;11.098;2023-02-01T00:31:28;6.53;;;4.80;;
18661;SDS011;61528;49.456;11.098;2023-02-01T00:33:54;7.33;;;5.37;;
18661;SDS011;61528;49.456;11.098;2023-02-01T00:36:21;5.77;;;4.80;;
18661;SDS011;61528;49.456;11.098;2023-02-01T00:38:47;6.63;;;5.07;;
18661;SDS011;61528;49.456;11.098;2023-02-01T00:41:14;5.63;;;4.70;;
18661;SDS011;61528;49.456;11.098;2023-02-01T00:43:41;5.97;;;4.90;;
18661;SDS011;61528;49.456;11.098;2023-02-01T00:46:08;6.10;;;5.50;;
18661;SDS011;61528;49.456;11.098;2023-02-01T00:48:34;7.70;;;5.17;;
18661;SDS011;61528;49.456;11.098;2023-02-01T00:51:00;7.00;;;5.13;;
18661;SDS011;61528;49.456;11.098;2023-02-01T00:53:27;5.53;;;4.80;;
18661;SDS011;61528;49.456;11.098;2023-02-01T00:55:53;6.77;;;5.33;;
18661;SDS011;61528;49.456;11.098;2023-02-01T00:58:19;7.13;;;5.10;;
18661;SDS011;61528;49.456;11.098;2023-02-01T01:00:47;7.27;;;5.13;;
18661;SDS011;61528;49.456;11.098;2023-02-01T01:03:14;6.87;;;5.17;;
18661;SDS011;61528;49.456;11.098;2023-02-01T01:05:46;8.17;;;5.03;;
18661;SDS011;61528;49.456;11.098;2023-02-01T01:08:13;5.40;;;4.90;;
18661;SDS011;61528;49.456;11.098;2023-02-01T01:10:40;6.93;;;5.83;;
18661;SDS011;61528;49.456;11.098;2023-02-01T01:13:07;5.90;;;5.27;;
18661;SDS011;61528;49.456;11.098;2023-02-01T01:15:37;7.10;;;5.17;;
18661;SDS011;61528;49.456;11.098;2023-02-01T01:18:03;6.63;;;4.83;;
18661;SDS011;61528;49.456;11.098;2023-02-01T01:20:30;5.27;;;4.73;;
18661;SDS011;61528;49.456;11.098;2023-02-01T01:22:56;5.13;;;4.63;;
18661;SDS011;61528;49.456;11.098;2023-02-01T01:25:22;7.13;;;4.93;;
18661;SDS011;61528;49.456;11.098;2023-02-01T01:27:48;6.60;;;4.90;;
18661;SDS011;61528;49.456;11.098;2023-02-01T01:30:15;5.30;;;4.80;;
18661;SDS011;61528;49.456;11.098;2023-02-01T01:32:41;5.03;;;4.53;;
18661;SDS011;61528;49.456;11.098;2023-02-01T01:35:07;7.40;;;4.93;;
18661;SDS011;61528;49.456;11.098;2023-02-01T01:37:34;5.57;;;4.87;;
18661;SDS011;61528;49.456;11.098;2023-02-01T01:40:01;6.10;;;4.90;;
18661;SDS011;61528;49.456;11.098;2023-02-01T01:42:28;6.90;;;5.37;;
18661;SDS011;61528;49.456;11.098;2023-02-01T01:47:31;10.23;;;7.17;;
18661;SDS011;61528;49.456;11.098;2023-02-01T01:49:59;9.97;;;7.13;;
18661;SDS011;61528;49.456;11.098;2023-02-01T01:52:25;8.33;;;5.70;;
18661;SDS011;61528;49.456;11.098;2023-02-01T01:54:51;6.97;;;5.10;;
18661;SDS011;61528;49.456;11.098;2023-02-01T01:57:39;5.67;;;4.90;;
18661;SDS011;61528;49.456;11.098;2023-02-01T02:00:09;7.40;;;5.00;;
18661;SDS011;61528;49.456;11.098;2023-02-01T02:02:36;5.73;;;5.03;;
18661;SDS011;61528;49.456;11.098;2023-02-01T02:05:03;6.60;;;4.67;;
18661;SDS011;61528;49.456;11.098;2023-02-01T02:07:30;6.50;;;4.60;;
18661;SDS011;61528;49.456;11.098;2023-02-01T02:09:57;6.13;;;4.90;;
18661;SDS011;61528;49.456;11.098;2023-02-01T02:12:23;4.67;;;4.27;;
18661;SDS011;61528;49.456;11.098;2023-02-01T02:14:50;5.00;;;4.20;;
18661;SDS011;61528;49.456;11.098;2023-02-01T02:17:30;6.30;;;4.67;;
18661;SDS011;61528;49.456;11.098;2023-02-01T02:30:48;5.77;;;4.67;;
18661;SDS011;61528;49.456;11.098;2023-02-01T02:33:39;5.50;;;4.73;;
18661;SDS011;61528;49.456;11.098;2023-02-01T02:36:14;5.43;;;4.47;;
18661;SDS011;61528;49.456;11.098;2023-02-01T02:39:05;5.43;;;4.23;;
18661;SDS011;61528;49.456;11.098;2023-02-01T02:41:37;5.20;;;4.70;;
18661;SDS011;61528;49.456;11.098;2023-02-01T02:44:29;7.37;;;4.17;;
18661;SDS011;61528;49.456;11.098;2023-02-01T02:47:21;7.47;;;5.03;;
18661;SDS011;61528;49.456;11.098;2023-02-01T02:49:59;7.77;;;5.00;;
18661;SDS011;61528;49.456;11.098;2023-02-01T02:55:51;7.60;;;5.07;;
18661;SDS011;61528;49.456;11.098;2023-02-01T02:58:37;5.83;;;5.23;;
18661;SDS011;61528;49.456;11.098;2023-02-01T03:01:22;5.73;;;4.97;;
18661;SDS011;61528;49.456;11.098;2023-02-01T03:04:07;7.77;;;5.27;;
18661;SDS011;61528;49.456;11.098;2023-02-01T03:06:42;8.33;;;5.63;;
18661;SDS011;61528;49.456;11.098;2023-02-01T03:09:41;7.27;;;5.40;;
18661;SDS011;61528;49.456;11.098;2023-02-01T03:12:03;8.93;;;5.70;;
18661;SDS011;61528;49.456;11.098;2023-02-01T03:14:50;6.33;;;5.50;;
18661;SDS011;61528;49.456;11.098;2023-02-01T03:17:22;6.37;;;5.27;;
18661;SDS011;61528;49.456;11.098;2023-02-01T03:19:51;6.10;;;5.30;;
18661;SDS011;61528;49.456;11.098;2023-02-01T03:22:22;5.80;;;5.07;;
18661;SDS011;61528;49.456;11.098;2023-02-01T03:24:56;5.87;;;5.13;;
18661;SDS011;61528;49.456;11.098;2023-02-01T03:27:30;6.10;;;5.10;;
18661;SDS011;61528;49.456;11.098;2023-02-01T03:32:35;6.90;;;5.40;;
18661;SDS011;61528;49.456;11.098;2023-02-01T03:35:23;8.77;;;5.87;;
18661;SDS011;61528;49.456;11.098;2023-02-01T03:37:52;6.80;;;5.10;;
18661;SDS011;61528;49.456;11.098;2023-02-01T03:40:19;5.67;;;5.00;;
18661;SDS011;61528;49.456;11.098;2023-02-01T03:42:48;6.73;;;5.77;;
18661;SDS011;61528;49.456;11.098;2023-02-01T03:45:26;8.57;;;6.07;;
18661;SDS011;61528;49.456;11.098;2023-02-01T03:47:54;7.20;;;5.57;;
18661;SDS011;61528;49.456;11.098;2023-02-01T03:50:21;10.10;;;6.73;;
18661;SDS011;61528;49.456;11.098;2023-02-01T03:55:22;7.43;;;6.27;;
18661;SDS011;61528;49.456;11.098;2023-02-01T04:00:27;7.53;;;6.30;;
18661;SDS011;61528;49.456;11.098;2023-02-01T04:02:54;6.80;;;5.77;;
18661;SDS011;61528;49.456;11.098;2023-02-01T04:05:20;7.37;;;6.23;;
18661;SDS011;61528;49.456;11.098;2023-02-01T04:07:47;8.23;;;6.13;;
18661;SDS011;61528;49.456;11.098;2023-02-01T04:10:13;8.77;;;5.90;;
18661;SDS011;61528;49.456;11.098;2023-02-01T04:12:40;7.70;;;6.40;;
18661;SDS011;61528;49.456;11.098;2023-02-01T04:15:06;8.47;;;6.30;;
18661;SDS011;61528;49.456;11.098;2023-02-01T04:17:33;7.40;;;6.60;;
18661;SDS011;61528;49.456;11.098;2023-02-01T04:19:59;9.27;;;6.17;;
18661;SDS011;61528;49.456;11.098;2023-02-01T04:22:25;9.97;;;6.37;;
18661;SDS011;61528;49.456;11.098;2023-02-01T04:24:52;7.97;;;6.47;;
18661;SDS011;61528;49.456;11.098;2023-02-01T04:27:18;7.77;;;6.17;;
18661;SDS011;61528;49.456;11.098;2023-02-01T04:29:44;8.70;;;5.97;;
18661;SDS011;61528;49.456;11.098;2023-02-01T04:32:11;10.43;;;6.23;;
18661;SDS011;61528;49.456;11.098;2023-02-01T04:34:37;8.10;;;5.97;;
18661;SDS011;61528;49.456;11.098;2023-02-01T04:37:03;8.87;;;6.50;;
18661;SDS011;61528;49.456;11.098;2023-02-01T04:39:29;7.23;;;5.97;;
18661;SDS011;61528;49.456;11.098;2023-02-01T04:41:56;7.10;;;6.40;;
18661;SDS011;61528;49.456;11.098;2023-02-01T04:44:22;8.10;;;6.30;;
18661;SDS011;61528;49.456;11.098;2023-02-01T04:46:48;9.13;;;6.60;;
18661;SDS011;61528;49.456;11.098;2023-02-01T04:49:15;8.73;;;5.93;;
18661;SDS011;61528;49.456;11.098;2023-02-01T04:51:41;9.40;;;6.40;;
18661;SDS011;61528;49.456;11.098;2023-02-01T04:54:08;8.10;;;6.67;;
18661;SDS011;61528;49.456;11.098;2023-02-01T04:56:36;8.87;;;5.93;;
18661;SDS011;61528;49.456;11.098;2023-02-01T04:59:03;8.43;;;6.40;;
18661;SDS011;61528;49.456;11.098;2023-02-01T05:01:30;7.70;;;6.30;;
18661;SDS011;61528;49.456;11.098;2023-02-01T05:03:56;8.80;;;6.20;;
18661;SDS011;61528;49.456;11.098;2023-02-01T05:06:23;9.00;;;5.83;;
18661;SDS011;61528;49.456;11.098;2023-02-01T05:08:49;8.77;;;6.20;;
18661;SDS011;61528;49.456;11.098;2023-02-01T05:11:16;7.67;;;5.90;;
18661;SDS011;61528;49.456;11.098;2023-02-01T05:14:00;7.27;;;5.87;;
18661;SDS011;61528;49.456;11.098;2023-02-01T05:16:27;8.13;;;5.87;;
18661;SDS011;61528;49.456;11.098;2023-02-01T05:18:53;9.07;;;5.70;;
18661;SDS011;61528;49.456;11.098;2023-02-01T05:21:20;7.43;;;5.93;;
18661;SDS011;61528;49.456;11.098;2023-02-01T05:23:46;8.30;;;6.03;;
18661;SDS011;61528;49.456;11.098;2023-02-01T05:26:31;6.93;;;5.20;;
18661;SDS011;61528;49.456;11.098;2023-02-01T05:28:57;8.67;;;5.67;;
18661;SDS011;61528;49.456;11.098;2023-02-01T05:31:24;7.70;;;5.80;;
18661;SDS011;61528;49.456;11.098;2023-02-01T05:33:50;8.17;;;6.00;;
18661;SDS011;61528;49.456;11.098;2023-02-01T05:36:16;7.67;;;6.30;;
18661;SDS011;61528;49.456;11.098;2023-02-01T05:38:43;7.53;;;5.97;;
18661;SDS011;61528;49.456;11.098;2023-02-01T05:41:09;9.77;;;5.90;;
18661;SDS011;61528;49.456;11.098;2023-02-01T05:43:35;7.53;;;5.77;;
18661;SDS011;61528;49.456;11.098;2023-02-01T05:46:02;7.60;;;6.30;;
18661;SDS011;61528;49.456;11.098;2023-02-01T05:48:28;9.40;;;6.40;;
18661;SDS011;61528;49.456;11.098;2023-02-01T05:50:54;6.57;;;5.70;;
18661;SDS011;61528;49.456;11.098;2023-02-01T05:53:20;6.50;;;5.13;;
18661;SDS011;61528;49.456;11.098;2023-02-01T05:55:47;6.87;;;5.17;;
18661;SDS011;61528;49.456;11.098;2023-02-01T05:58:13;5.63;;;4.90;;
18661;SDS011;61528;49.456;11.098;2023-02-01T06:00:39;5.73;;;4.60;;
18661;SDS011;61528;49.456;11.098;2023-02-01T06:03:06;7.87;;;4.97;;
18661;SDS011;61528;49.456;11.098;2023-02-01T06:05:32;5.47;;;4.50;;
18661;SDS011;61528;49.456;11.098;2023-02-01T06:07:58;6.77;;;4.63;;
18661;SDS011;61528;49.456;11.098;2023-02-01T06:10:25;6.27;;;4.33;;
18661;SDS011;61528;49.456;11.098;2023-02-01T06:12:51;5.40;;;3.43;;
18661;SDS011;61528;49.456;11.098;2023-02-01T06:15:18;5.13;;;2.90;;
18661;SDS011;61528;49.456;11.098;2023-02-01T06:17:45;3.87;;;2.80;;
18661;SDS011;61528;49.456;11.098;2023-02-01T06:20:12;4.40;;;3.40;;
18661;SDS011;61528;49.456;11.098;2023-02-01T06:22:39;3.60;;;3.20;;
18661;SDS011;61528;49.456;11.098;2023-02-01T06:25:06;4.27;;;3.13;;
18661;SDS011;61528;49.456;11.098;2023-02-01T06:27:33;5.07;;;3.90;;
18661;SDS011;61528;49.456;11.098;2023-02-01T06:29:59;4.40;;;3.40;;
18661;SDS011;61528;49.456;11.098;2023-02-01T06:32:26;4.40;;;3.70;;
18661;SDS011;61528;49.456;11.098;2023-02-01T06:34:53;5.20;;;3.80;;
18661;SDS011;61528;49.456;11.098;2023-02-01T06:37:21;4.03;;;3.40;;
18661;SDS011;61528;49.456;11.098;2023-02-01T06:39:48;4.53;;;3.70;;
18661;SDS011;61528;49.456;11.098;2023-02-01T06:42:14;4.47;;;3.60;;
18661;SDS011;61528;49.456;11.098;2023-02-01T06:44:41;5.73;;;3.30;;
18661;SDS011;61528;49.456;11.098;2023-02-01T06:47:07;3.97;;;3.57;;
18661;SDS011;61528;49.456;11.098;2023-02-01T06:49:33;3.73;;;3.10;;
18661;SDS011;61528;49.456;11.098;2023-02-01T06:52:00;3.67;;;3.37;;
18661;SDS011;61528;49.456;11.098;2023-02-01T06:54:26;3.23;;;2.90;;
18661;SDS011;61528;49.456;11.098;2023-02-01T06:56:53;2.90;;;2.63;;
18661;SDS011;61528;49.456;11.098;2023-02-01T06:59:19;2.83;;;2.50;;
18661;SDS011;61528;49.456;11.098;2023-02-01T07:01:45;2.93;;;2.63;;
18661;SDS011;61528;49.456;11.098;2023-02-01T07:04:12;3.60;;;2.80;;
18661;SDS011;61528;49.456;11.098;2023-02-01T07:06:39;3.70;;;2.83;;
18661;SDS011;61528;49.456;11.098;2023-02-01T07:09:06;3.00;;;2.70;;
18661;SDS011;61528;49.456;11.098;2023-02-01T07:11:32;3.60;;;3.00;;
18661;SDS011;61528;49.456;11.098;2023-02-01T07:13:59;2.93;;;2.63;;
18661;SDS011;61528;49.456;11.098;2023-02-01T07:16:25;3.33;;;2.90;;
18661;SDS011;61528;49.456;11.098;2023-02-01T07:18:52;2.90;;;2.43;;
18661;SDS011;61528;49.456;11.098;2023-02-01T07:21:19;3.40;;;2.40;;
18661;SDS011;61528;49.456;11.098;2023-02-01T07:23:45;3.53;;;2.70;;
18661;SDS011;61528;49.456;11.098;2023-02-01T07:26:12;3.27;;;2.60;;
18661;SDS011;61528;49.456;11.098;2023-02-01T07:28:39;3.30;;;2.80;;
18661;SDS011;61528;49.456;11.098;2023-02-01T07:31:07;6.60;;;5.07;;
18661;SDS011;61528;49.456;11.098;2023-02-01T07:33:34;3.17;;;2.87;;
18661;SDS011;61528;49.456;11.098;2023-02-01T07:36:01;3.83;;;2.80;;
18661;SDS011;61528;49.456;11.098;2023-02-01T07:38:28;4.37;;;3.30;;
18661;SDS011;61528;49.456;11.098;2023-02-01T07:41:04;3.10;;;2.80;;
18661;SDS011;61528;49.456;11.098;2023-02-01T07:43:31;3.20;;;2.77;;
18661;SDS011;61528;49.456;11.098;2023-02-01T07:46:01;4.43;;;3.10;;
18661;SDS011;61528;49.456;11.098;2023-02-01T07:48:27;4.67;;;3.47;;
18661;SDS011;61528;49.456;11.098;2023-02-01T07:50:57;4.33;;;2.90;;
18661;SDS011;61528;49.456;11.098;2023-02-01T07:53:24;4.97;;;3.50;;
18661;SDS011;61528;49.456;11.098;2023-02-01T07:55:51;6.07;;;3.90;;
18661;SDS011;61528;49.456;11.098;2023-02-01T07:58:17;8.83;;;4.13;;
18661;SDS011;61528;49.456;11.098;2023-02-01T08:00:43;5.80;;;3.73;;
18661;SDS011;61528;49.456;11.098;2023-02-01T08:03:28;3.50;;;3.20;;
18661;SDS011;61528;49.456;11.098;2023-02-01T08:05:54;4.80;;;3.23;;
18661;SDS011;61528;49.456;11.098;2023-02-01T08:08:21;5.60;;;3.73;;
18661;SDS011;61528;49.456;11.098;2023-02-01T08:10:47;4.03;;;3.00;;
18661;SDS011;61528;49.456;11.098;2023-02-01T08:13:14;8.17;;;3.40;;
18661;SDS011;61528;49.456;11.098;2023-02-01T08:15:40;9.27;;;3.20;;
18661;SDS011;61528;49.456;11.098;2023-02-01T08:18:07;3.30;;;2.70;;
18661;SDS011;61528;49.456;11.098;2023-02-01T08:20:35;6.03;;;3.20;;
18661;SDS011;61528;49.456;11.098;2023-02-01T08:23:07;6.90;;;3.00;;
18661;SDS011;61528;49.456;11.098;2023-02-01T08:25:34;7.93;;;3.50;;
18661;SDS011;61528;49.456;11.098;2023-02-01T08:28:01;4.60;;;2.50;;
18661;SDS011;61528;49.456;11.098;2023-02-01T08:30:28;4.53;;;2.73;;
18661;SDS011;61528;49.456;11.098;2023-02-01T08:32:55;3.67;;;2.57;;
18661;SDS011;61528;49.456;11.098;2023-02-01T08:35:21;4.40;;;2.80;;
18661;SDS011;61528;49.456;11.098;2023-02-01T08:37:49;7.17;;;2.27;;
18661;SDS011;61528;49.456;11.098;2023-02-01T08:40:15;5.10;;;2.50;;
18661;SDS011;61528;49.456;11.098;2023-02-01T08:42:42;6.30;;;2.37;;
18661;SDS011;61528;49.456;11.098;2023-02-01T08:45:18;2.87;;;2.30;;
18661;SDS011;61528;49.456;11.098;2023-02-01T08:47:45;4.40;;;2.07;;
18661;SDS011;61528;49.456;11.098;2023-02-01T08:50:14;3.97;;;1.90;;
18661;SDS011;61528;49.456;11.098;2023-02-01T08:52:40;5.90;;;2.43;;
18661;SDS011;61528;49.456;11.098;2023-02-01T08:55:07;3.63;;;2.13;;
18661;SDS011;61528;49.456;11.098;2023-02-01T08:57:34;5.77;;;2.20;;
18661;SDS011;61528;49.456;11.098;2023-02-01T09:00:00;3.03;;;2.07;;
18661;SDS011;61528;49.456;11.098;2023-02-01T09:02:26;4.40;;;2.20;;
18661;SDS011;61528;49.456;11.098;2023-02-01T09:04:53;4.80;;;2.30;;
18661;SDS011;61528;49.456;11.098;2023-02-01T09:07:19;3.97;;;2.13;;
18661;SDS011;61528;49.456;11.098;2023-02-01T09:09:45;5.23;;;2.87;;
18661;SDS011;61528;49.456;11.098;2023-02-01T09:12:12;7.47;;;2.67;;
18661;SDS011;61528;49.456;11.098;2023-02-01T09:14:38;8.57;;;2.70;;
18661;SDS011;61528;49.456;11.098;2023-02-01T09:17:04;4.60;;;2.50;;
18661;SDS011;61528;49.456;11.098;2023-02-01T09:19:31;4.60;;;2.87;;
18661;SDS011;61528;49.456;11.098;2023-02-01T09:21:58;4.50;;;3.03;;
18661;SDS011;61528;49.456;11.098;2023-02-01T09:24:25;5.97;;;2.97;;
18661;SDS011;61528;49.456;11.098;2023-02-01T09:26:52;4.77;;;2.30;;
18661;SDS011;61528;49.456;11.098;2023-02-01T09:29:19;7.60;;;2.13;;
18661;SDS011;61528;49.456;11.098;2023-02-01T09:31:45;3.47;;;2.50;;
18661;SDS011;61528;49.456;11.098;2023-02-01T09:34:11;4.43;;;1.87;;
18661;SDS011;61528;49.456;11.098;2023-02-01T09:36:38;4.23;;;1.47;;
18661;SDS011;61528;49.456;11.098;2023-02-01T09:39:04;6.67;;;1.90;;
18661;SDS011;61528;49.456;11.098;2023-02-01T09:41:34;4.87;;;1.47;;
18661;SDS011;61528;49.456;11.098;2023-02-01T09:46:41;4.60;;;1.60;;
18661;SDS011;61528;49.456;11.098;2023-02-01T09:49:15;5.27;;;1.13;;
18661;SDS011;61528;49.456;11.098;2023-02-01T09:51:43;5.60;;;1.43;;
18661;SDS011;61528;49.456;11.098;2023-02-01T09:54:17;4.63;;;1.90;;
18661;SDS011;61528;49.456;11.098;2023-02-01T10:01:56;4.13;;;1.40;;
18661;SDS011;61528;49.456;11.098;2023-02-01T10:04:24;3.80;;;1.30;;
18661;SDS011;61528;49.456;11.098;2023-02-01T10:06:54;4.53;;;1.40;;
18661;SDS011;61528;49.456;11.098;2023-02-01T10:22:47;5.40;;;2.33;;
18661;SDS011;61528;49.456;11.098;2023-02-01T10:25:21;4.60;;;2.33;;
18661;SDS011;61528;49.456;11.098;2023-02-01T10:27:49;5.33;;;2.40;;
18661;SDS011;61528;49.456;11.098;2023-02-01T10:30:18;6.90;;;3.20;;
18661;SDS011;61528;49.456;11.098;2023-02-01T10:32:45;6.00;;;3.43;;
18661;SDS011;61528;49.456;11.098;2023-02-01T10:35:16;6.83;;;3.37;;
18661;SDS011;61528;49.456;11.098;2023-02-01T10:37:43;7.50;;;3.37;;
18661;SDS011;61528;49.456;11.098;2023-02-01T10:40:21;8.87;;;3.70;;
18661;SDS011;61528;49.456;11.098;2023-02-01T10:42:49;9.10;;;2.90;;
18661;SDS011;61528;49.456;11.098;2023-02-01T10:45:18;8.77;;;3.63;;
18661;SDS011;61528;49.456;11.098;2023-02-01T10:47:47;6.67;;;3.40;;
18661;SDS011;61528;49.456;11.098;2023-02-01T10:50:28;8.63;;;3.07;;
18661;SDS011;61528;49.456;11.098;2023-02-01T10:52:59;10.53;;;3.20;;
18661;SDS011;61528;49.456;11.098;2023-02-01T10:55:37;7.40;;;2.87;;
18661;SDS011;61528;49.456;11.098;2023-02-01T10:58:06;8.10;;;2.93;;
18661;SDS011;61528;49.456;11.098;2023-02-01T11:00:36;9.63;;;3.77;;
18661;SDS011;61528;49.456;11.098;2023-02-01T11:03:18;7.67;;;3.37;;
18661;SDS011;61528;49.456;11.098;2023-02-01T11:05:46;8.90;;;3.50;;
18661;SDS011;61528;49.456;11.098;2023-02-01T11:08:14;8.93;;;3.40;;
18661;SDS011;61528;49.456;11.098;2023-02-01T11:10:42;8.27;;;3.17;;
18661;SDS011;61528;49.456;11.098;2023-02-01T11:13:15;10.73;;;3.40;;
18661;SDS011;61528;49.456;11.098;2023-02-01T11:15:43;11.63;;;3.20;;
18661;SDS011;61528;49.456;11.098;2023-02-01T11:18:17;9.27;;;3.43;;
18661;SDS011;61528;49.456;11.098;2023-02-01T11:20:44;8.50;;;3.73;;
18661;SDS011;61528;49.456;11.098;2023-02-01T11:23:15;7.90;;;3.33;;
18661;SDS011;61528;49.456;11.098;2023-02-01T11:25:48;10.57;;;3.50;;
18661;SDS011;61528;49.456;11.098;2023-02-01T11:28:15;12.23;;;3.53;;
18661;SDS011;61528;49.456;11.098;2023-02-01T11:30:42;9.07;;;2.70;;
18661;SDS011;61528;49.456;11.098;2023-02-01T11:33:14;8.97;;;2.93;;
18661;SDS011;61528;49.456;11.098;2023-02-01T11:35:41;4.27;;;2.20;;
18661;SDS011;61528;49.456;11.098;2023-02-01T11:38:23;8.60;;;3.00;;
18661;SDS011;61528;49.456;11.098;2023-02-01T11:40:51;8.37;;;3.20;;
18661;SDS011;61528;49.456;11.098;2023-02-01T11:46:02;8.80;;;2.70;;
18661;SDS011;61528;49.456;11.098;2023-02-01T11:48:30;7.80;;;2.17;;
18661;SDS011;61528;49.456;11.098;2023-02-01T11:51:01;8.70;;;2.73;;
18661;SDS011;61528;49.456;11.098;2023-02-01T12:01:05;6.10;;;2.60;;
18661;SDS011;61528;49.456;11.098;2023-02-01T12:06:27;9.60;;;3.00;;
18661;SDS011;61528;49.456;11.098;2023-02-01T12:09:02;4.13;;;2.30;;
18661;SDS011;61528;49.456;11.098;2023-02-01T12:14:19;7.03;;;2.53;;
18661;SDS011;61528;49.456;11.098;2023-02-01T12:17:12;6.10;;;2.80;;
18661;SDS011;61528;49.456;11.098;2023-02-01T12:24:48;9.80;;;3.93;;
18661;SDS011;61528;49.456;11.098;2023-02-01T12:29:58;8.90;;;2.73;;
18661;SDS011;61528;49.456;11.098;2023-02-01T12:32:41;7.60;;;2.30;;
18661;SDS011;61528;49.456;11.098;2023-02-01T12:38:23;6.80;;;2.43;;
18661;SDS011;61528;49.456;11.098;2023-02-01T12:40:43;4.70;;;2.03;;
18661;SDS011;61528;49.456;11.098;2023-02-01T12:43:16;9.27;;;2.43;;
18661;SDS011;61528;49.456;11.098;2023-02-01T12:46:01;9.70;;;2.60;;
18661;SDS011;61528;49.456;11.098;2023-02-01T12:48:32;8.87;;;2.60;;
18661;SDS011;61528;49.456;11.098;2023-02-01T12:51:07;7.90;;;2.27;;
18661;SDS011;61528;49.456;11.098;2023-02-01T12:53:39;5.43;;;2.60;;
18661;SDS011;61528;49.456;11.098;2023-02-01T12:56:09;8.37;;;2.57;;
18661;SDS011;61528;49.456;11.098;2023-02-01T12:58:45;7.67;;;2.70;;
18661;SDS011;61528;49.456;11.098;2023-02-01T13:01:18;9.10;;;2.30;;
18661;SDS011;61528;49.456;11.098;2023-02-01T13:06:16;8.03;;;2.83;;
18661;SDS011;61528;49.456;11.098;2023-02-01T13:11:33;7.80;;;2.30;;
18661;SDS011;61528;49.456;11.098;2023-02-01T13:14:02;9.40;;;2.50;;
18661;SDS011;61528;49.456;11.098;2023-02-01T13:19:05;8.43;;;2.90;;
18661;SDS011;61528;49.456;11.098;2023-02-01T13:21:34;8.27;;;2.60;;
18661;SDS011;61528;49.456;11.098;2023-02-01T13:24:02;11.00;;;2.83;;
18661;SDS011;61528;49.456;11.098;2023-02-01T13:26:29;6.67;;;2.33;;
18661;SDS011;61528;49.456;11.098;2023-02-01T13:29:02;7.67;;;2.67;;
18661;SDS011;61528;49.456;11.098;2023-02-01T13:36:48;8.03;;;2.73;;
18661;SDS011;61528;49.456;11.098;2023-02-01T13:39:24;10.90;;;3.17;;
18661;SDS011;61528;49.456;11.098;2023-02-01T13:41:57;10.93;;;2.70;;
18661;SDS011;61528;49.456;11.098;2023-02-01T13:44:28;5.87;;;2.10;;
18661;SDS011;61528;49.456;11.098;2023-02-01T13:46:57;8.93;;;2.50;;
18661;SDS011;61528;49.456;11.098;2023-02-01T13:49:25;7.50;;;2.47;;
18661;SDS011;61528;49.456;11.098;2023-02-01T13:51:53;6.73;;;2.23;;
18661;SDS011;61528;49.456;11.098;2023-02-01T13:54:31;8.00;;;2.20;;
18661;SDS011;61528;49.456;11.098;2023-02-01T13:56:58;8.40;;;2.70;;
18661;SDS011;61528;49.456;11.098;2023-02-01T14:04:49;5.37;;;2.13;;
18661;SDS011;61528;49.456;11.098;2023-02-01T14:07:19;7.80;;;2.33;;
18661;SDS011;61528;49.456;11.098;2023-02-01T14:09:46;5.83;;;2.10;;
18661;SDS011;61528;49.456;11.098;2023-02-01T14:15:17;6.40;;;2.17;;
18661;SDS011;61528;49.456;11.098;2023-02-01T14:17:46;7.87;;;2.20;;
18661;SDS011;61528;49.456;11.098;2023-02-01T14:23:01;5.80;;;2.50;;
18661;SDS011;61528;49.456;11.098;2023-02-01T14:25:32;9.83;;;3.13;;
18661;SDS011;61528;49.456;11.098;2023-02-01T14:27:58;8.90;;;2.40;;
18661;SDS011;61528;49.456;11.098;2023-02-01T14:30:24;8.40;;;2.70;;
18661;SDS011;61528;49.456;11.098;2023-02-01T14:32:51;7.57;;;2.50;;
18661;SDS011;61528;49.456;11.098;2023-02-01T14:35:18;8.43;;;2.47;;
18661;SDS011;61528;49.456;11.098;2023-02-01T14:37:45;8.33;;;2.30;;
18661;SDS011;61528;49.456;11.098;2023-02-01T14:42:48;10.07;;;2.73;;
18661;SDS011;61528;49.456;11.098;2023-02-01T14:47:46;11.67;;;2.47;;
18661;SDS011;61528;49.456;11.098;2023-02-01T14:53:06;6.70;;;2.27;;
18661;SDS011;61528;49.456;11.098;2023-02-01T14:55:43;8.93;;;2.60;;
18661;SDS011;61528;49.456;11.098;2023-02-01T15:00:54;9.27;;;2.33;;
18661;SDS011;61528;49.456;11.098;2023-02-01T15:06:13;7.53;;;2.10;;
18661;SDS011;61528;49.456;11.098;2023-02-01T15:08:44;6.47;;;2.40;;
18661;SDS011;61528;49.456;11.098;2023-02-01T15:11:12;8.90;;;2.77;;
18661;SDS011;61528;49.456;11.098;2023-02-01T15:13:40;10.73;;;2.80;;
18661;SDS011;61528;49.456;11.098;2023-02-01T15:16:10;8.07;;;2.53;;
18661;SDS011;61528;49.456;11.098;2023-02-01T15:18:37;9.53;;;3.17;;
18661;SDS011;61528;49.456;11.098;2023-02-01T15:21:04;6.30;;;2.30;;
18661;SDS011;61528;49.456;11.098;2023-02-01T15:23:31;8.87;;;2.87;;
18661;SDS011;61528;49.456;11.098;2023-02-01T15:25:57;8.00;;;2.67;;
18661;SDS011;61528;49.456;11.098;2023-02-01T15:28:26;11.73;;;2.80;;
18661;SDS011;61528;49.456;11.098;2023-02-01T15:30:54;11.07;;;2.77;;
18661;SDS011;61528;49.456;11.098;2023-02-01T15:33:20;8.03;;;3.10;;
18661;SDS011;61528;49.456;11.098;2023-02-01T15:35:50;7.33;;;2.43;;
18661;SDS011;61528;49.456;11.098;2023-02-01T15:46:21;6.90;;;2.30;;
18661;SDS011;61528;49.456;11.098;2023-02-01T15:48:53;12.90;;;2.33;;
18661;SDS011;61528;49.456;11.098;2023-02-01T15:51:21;6.50;;;2.30;;
18661;SDS011;61528;49.456;11.098;2023-02-01T15:53:49;7.17;;;2.10;;
18661;SDS011;61528;49.456;11.098;2023-02-01T15:56:16;12.13;;;2.23;;
18661;SDS011;61528;49.456;11.098;2023-02-01T15:58:48;7.73;;;2.40;;
18661;SDS011;61528;49.456;11.098;2023-02-01T16:01:16;10.23;;;2.33;;
18661;SDS011;61528;49.456;11.098;2023-02-01T16:03:43;8.03;;;2.13;;
18661;SDS011;61528;49.456;11.098;2023-02-01T16:08:50;8.83;;;1.93;;
18661;SDS011;61528;49.456;11.098;2023-02-01T16:11:32;9.17;;;2.30;;
18661;SDS011;61528;49.456;11.098;2023-02-01T16:14:05;10.00;;;2.63;;
18661;SDS011;61528;49.456;11.098;2023-02-01T16:16:31;5.63;;;1.90;;
18661;SDS011;61528;49.456;11.098;2023-02-01T16:18:58;9.07;;;2.40;;
18661;SDS011;61528;49.456;11.098;2023-02-01T16:21:24;8.03;;;2.17;;
18661;SDS011;61528;49.456;11.098;2023-02-01T16:23:51;10.57;;;2.87;;
18661;SDS011;61528;49.456;11.098;2023-02-01T16:26:18;7.63;;;2.03;;
18661;SDS011;61528;49.456;11.098;2023-02-01T16:28:45;7.10;;;2.10;;
18661;SDS011;61528;49.456;11.098;2023-02-01T16:31:12;8.97;;;2.37;;
18661;SDS011;61528;49.456;11.098;2023-02-01T16:33:48;7.63;;;2.37;;
18661;SDS011;61528;49.456;11.098;2023-02-01T16:36:15;7.17;;;1.93;;
18661;SDS011;61528;49.456;11.098;2023-02-01T16:38:42;4.97;;;1.87;;
18661;SDS011;61528;49.456;11.098;2023-02-01T16:41:10;6.03;;;2.00;;
18661;SDS011;61528;49.456;11.098;2023-02-01T16:43:38;11.53;;;3.07;;
18661;SDS011;61528;49.456;11.098;2023-02-01T16:46:04;6.70;;;2.03;;